sensor_id;sensor_type;location;lat;lon;timestamp;pressure;altitude;pressure_sealevel;temperature;humidity
64404;BME280;50726;54.912;-8.392;2022-11-15T00:00:50;97850.34;;;29.01;63.53
64404;BME280;50726;54.912;-8.392;2022-11-15T00:03:18;97855.78;;;30.30;58.85
64404;BME280;50726;54.912;-8.392;2022-11-15T00:05:45;97842.97;;;30.80;57.92
64404;BME280;50726;54.912;-8.392;2022-11-15T00:08:10;97858.13;;;29.46;59.69
64404;BME280;50726;54.912;-8.392;2022-11-15T00:10:37;97850.44;;;29.50;61.18
64404;BME280;50726;54.912;-8.392;2022-11-15T00:13:10;97860.16;;;30.00;61.45
64404;BME280;50726;54.912;-8.392;2022-11-15T00:15:37;97853.81;;;29.64;61.57
64404;BME280;50726;54.912;-8.392;2022-11-15T00:18:04;97858.94;;;29.96;61.52
64404;BME280;50726;54.912;-8.392;2022-11-15T00:20:31;97854.94;;;29.87;62.53
64404;BME280;50726;54.912;-8.392;2022-11-15T00:22:56;97859.59;;;28.86;65.21
64404;BME280;50726;54.912;-8.392;2022-11-15T00:25:22;97849.31;;;30.74;61.00
64404;BME280;50726;54.912;-8.392;2022-11-15T00:27:49;97847.75;;;30.66;61.03
64404;BME280;50726;54.912;-8.392;2022-11-15T00:30:17;97855.25;;;29.79;64.15
64404;BME280;50726;54.912;-8.392;2022-11-15T00:32:43;97848.91;;;30.58;60.35
64404;BME280;50726;54.912;-8.392;2022-11-15T00:35:08;97876.47;;;29.56;64.24
64404;BME280;50726;54.912;-8.392;2022-11-15T00:37:34;97879.53;;;29.41;65.93
64404;BME280;50726;54.912;-8.392;2022-11-15T00:39:59;97865.00;;;29.24;66.86
64404;BME280;50726;54.912;-8.392;2022-11-15T00:42:25;97865.56;;;28.37;69.08
64404;BME280;50726;54.912;-8.392;2022-11-15T00:44:51;97884.13;;;29.34;67.88
64404;BME280;50726;54.912;-8.392;2022-11-15T00:47:16;97893.56;;;29.81;100.00
64404;BME280;50726;54.912;-8.392;2022-11-15T00:49:42;97882.59;;;30.13;83.20
64404;BME280;50726;54.912;-8.392;2022-11-15T00:52:07;97894.22;;;28.76;82.72
64404;BME280;50726;54.912;-8.392;2022-11-15T00:54:33;97901.81;;;29.48;81.84
64404;BME280;50726;54.912;-8.392;2022-11-15T00:56:59;97945.88;;;30.22;79.93
64404;BME280;50726;54.912;-8.392;2022-11-15T00:59:24;97971.81;;;29.67;77.36
64404;BME280;50726;54.912;-8.392;2022-11-15T01:01:51;97962.97;;;31.13;69.65
64404;BME280;50726;54.912;-8.392;2022-11-15T01:04:17;97979.19;;;31.25;65.75
64404;BME280;50726;54.912;-8.392;2022-11-15T01:06:42;97978.50;;;32.19;60.87
64404;BME280;50726;54.912;-8.392;2022-11-15T01:09:08;97967.13;;;32.80;56.48
64404;BME280;50726;54.912;-8.392;2022-11-15T01:11:34;97951.03;;;31.57;55.88
64404;BME280;50726;54.912;-8.392;2022-11-15T01:13:59;97977.72;;;32.06;56.03
64404;BME280;50726;54.912;-8.392;2022-11-15T01:16:25;97985.53;;;31.19;56.94
64404;BME280;50726;54.912;-8.392;2022-11-15T01:18:51;97987.84;;;31.03;57.01
64404;BME280;50726;54.912;-8.392;2022-11-15T01:21:18;97986.75;;;30.68;60.32
64404;BME280;50726;54.912;-8.392;2022-11-15T01:23:44;97973.94;;;29.40;59.97
64404;BME280;50726;54.912;-8.392;2022-11-15T01:26:12;97977.97;;;29.56;59.54
64404;BME280;50726;54.912;-8.392;2022-11-15T01:28:41;97996.28;;;31.79;57.47
64404;BME280;50726;54.912;-8.392;2022-11-15T01:31:19;97999.19;;;32.54;53.95
64404;BME280;50726;54.912;-8.392;2022-11-15T01:33:46;97967.69;;;31.06;57.65
64404;BME280;50726;54.912;-8.392;2022-11-15T01:36:15;97992.47;;;31.27;58.98
64404;BME280;50726;54.912;-8.392;2022-11-15T01:38:41;97979.94;;;28.65;58.25
64404;BME280;50726;54.912;-8.392;2022-11-15T01:41:14;97985.63;;;30.88;53.45
64404;BME280;50726;54.912;-8.392;2022-11-15T01:43:40;98023.53;;;30.13;53.94
64404;BME280;50726;54.912;-8.392;2022-11-15T01:48:47;97986.50;;;29.02;55.06
64404;BME280;50726;54.912;-8.392;2022-11-15T01:51:17;98006.69;;;29.81;54.38
64404;BME280;50726;54.912;-8.392;2022-11-15T01:53:46;98019.78;;;29.96;55.35
64404;BME280;50726;54.912;-8.392;2022-11-15T01:56:18;97992.94;;;31.12;49.46
64404;BME280;50726;54.912;-8.392;2022-11-15T01:58:45;98023.81;;;31.87;49.11
64404;BME280;50726;54.912;-8.392;2022-11-15T02:01:13;98000.66;;;31.80;49.54
64404;BME280;50726;54.912;-8.392;2022-11-15T02:03:55;98037.00;;;32.25;46.91
64404;BME280;50726;54.912;-8.392;2022-11-15T02:06:23;98037.84;;;31.06;48.25
64404;BME280;50726;54.912;-8.392;2022-11-15T02:08:49;98038.91;;;30.62;50.12
64404;BME280;50726;54.912;-8.392;2022-11-15T02:11:15;98032.31;;;29.20;54.04
64404;BME280;50726;54.912;-8.392;2022-11-15T02:13:41;98035.13;;;29.77;48.79
64404;BME280;50726;54.912;-8.392;2022-11-15T02:19:06;98029.59;;;31.31;47.38
64404;BME280;50726;54.912;-8.392;2022-11-15T02:21:49;98048.28;;;29.15;50.52
64404;BME280;50726;54.912;-8.392;2022-11-15T02:27:38;98050.13;;;33.55;43.78
64404;BME280;50726;54.912;-8.392;2022-11-15T02:33:01;98058.66;;;30.25;46.41
64404;BME280;50726;54.912;-8.392;2022-11-15T02:35:44;98055.97;;;32.54;43.17
64404;BME280;50726;54.912;-8.392;2022-11-15T02:38:31;98084.22;;;31.15;42.93
64404;BME280;50726;54.912;-8.392;2022-11-15T02:41:13;98060.19;;;30.52;45.24
64404;BME280;50726;54.912;-8.392;2022-11-15T02:44:03;98063.06;;;33.70;41.75
64404;BME280;50726;54.912;-8.392;2022-11-15T02:49:28;98030.34;;;29.97;45.35
64404;BME280;50726;54.912;-8.392;2022-11-15T02:51:55;98086.34;;;28.87;48.89
64404;BME280;50726;54.912;-8.392;2022-11-15T02:54:24;98039.78;;;30.25;46.84
64404;BME280;50726;54.912;-8.392;2022-11-15T02:56:53;98081.56;;;29.72;45.03
64404;BME280;50726;54.912;-8.392;2022-11-15T03:02:08;98050.13;;;30.10;42.12
64404;BME280;50726;54.912;-8.392;2022-11-15T03:07:29;98062.34;;;33.23;38.08
64404;BME280;50726;54.912;-8.392;2022-11-15T03:13:02;98049.06;;;31.57;41.62
64404;BME280;50726;54.912;-8.392;2022-11-15T03:15:38;98069.63;;;30.92;41.09
64404;BME280;50726;54.912;-8.392;2022-11-15T03:18:19;98070.28;;;33.30;35.25
64404;BME280;50726;54.912;-8.392;2022-11-15T03:20:48;98091.94;;;31.66;39.42
64404;BME280;50726;54.912;-8.392;2022-11-15T03:23:14;98089.91;;;32.21;36.66
64404;BME280;50726;54.912;-8.392;2022-11-15T03:25:48;98067.03;;;33.84;35.54
64404;BME280;50726;54.912;-8.392;2022-11-15T03:28:21;98063.84;;;32.14;37.36
64404;BME280;50726;54.912;-8.392;2022-11-15T03:30:49;98089.72;;;34.40;33.88
64404;BME280;50726;54.912;-8.392;2022-11-15T03:33:18;98088.78;;;33.67;34.60
64404;BME280;50726;54.912;-8.392;2022-11-15T03:35:46;98082.88;;;35.80;31.37
64404;BME280;50726;54.912;-8.392;2022-11-15T03:38:17;98078.84;;;32.92;33.31
64404;BME280;50726;54.912;-8.392;2022-11-15T03:40:59;98094.75;;;31.59;35.49
64404;BME280;50726;54.912;-8.392;2022-11-15T03:43:55;98109.03;;;29.62;36.10
64404;BME280;50726;54.912;-8.392;2022-11-15T03:46:35;98080.31;;;30.99;35.01
64404;BME280;50726;54.912;-8.392;2022-11-15T03:49:10;98090.50;;;30.66;34.88
64404;BME280;50726;54.912;-8.392;2022-11-15T03:51:37;98112.56;;;29.30;35.85
64404;BME280;50726;54.912;-8.392;2022-11-15T03:54:04;98102.13;;;30.85;35.10
64404;BME280;50726;54.912;-8.392;2022-11-15T03:56:30;98086.66;;;30.24;34.04
64404;BME280;50726;54.912;-8.392;2022-11-15T03:58:56;98075.53;;;29.26;36.45
64404;BME280;50726;54.912;-8.392;2022-11-15T04:01:22;98104.91;;;31.21;33.57
64404;BME280;50726;54.912;-8.392;2022-11-15T04:03:48;98101.56;;;31.38;33.28
64404;BME280;50726;54.912;-8.392;2022-11-15T04:06:14;98092.44;;;30.28;34.95
64404;BME280;50726;54.912;-8.392;2022-11-15T04:08:40;98096.81;;;33.62;31.88
64404;BME280;50726;54.912;-8.392;2022-11-15T04:11:05;98096.22;;;32.38;32.20
64404;BME280;50726;54.912;-8.392;2022-11-15T04:13:31;98076.38;;;29.52;34.59
64404;BME280;50726;54.912;-8.392;2022-11-15T04:15:57;98111.25;;;28.68;36.20
64404;BME280;50726;54.912;-8.392;2022-11-15T04:18:22;98110.03;;;29.35;36.75
64404;BME280;50726;54.912;-8.392;2022-11-15T04:20:49;98112.97;;;29.85;36.57
64404;BME280;50726;54.912;-8.392;2022-11-15T04:23:34;98119.53;;;30.52;35.37
64404;BME280;50726;54.912;-8.392;2022-11-15T04:26:20;98122.44;;;30.32;36.27
64404;BME280;50726;54.912;-8.392;2022-11-15T04:28:46;98112.22;;;31.32;33.91
64404;BME280;50726;54.912;-8.392;2022-11-15T04:31:30;98123.75;;;31.64;37.14
64404;BME280;50726;54.912;-8.392;2022-11-15T04:33:56;98128.00;;;31.59;36.19
64404;BME280;50726;54.912;-8.392;2022-11-15T04:36:22;98114.69;;;32.30;35.39
64404;BME280;50726;54.912;-8.392;2022-11-15T04:39:06;98128.47;;;31.56;34.80
64404;BME280;50726;54.912;-8.392;2022-11-15T04:41:33;98119.34;;;31.27;38.42
64404;BME280;50726;54.912;-8.392;2022-11-15T04:43:59;98123.38;;;30.93;36.52
64404;BME280;50726;54.912;-8.392;2022-11-15T04:46:25;98118.88;;;30.87;37.92
64404;BME280;50726;54.912;-8.392;2022-11-15T04:48:51;98113.34;;;32.15;36.38
64404;BME280;50726;54.912;-8.392;2022-11-15T04:51:18;98122.00;;;31.15;37.76
64404;BME280;50726;54.912;-8.392;2022-11-15T04:53:46;98144.97;;;31.91;34.92
64404;BME280;50726;54.912;-8.392;2022-11-15T04:56:11;98138.03;;;31.95;33.17
64404;BME280;50726;54.912;-8.392;2022-11-15T04:58:37;98113.25;;;34.12;30.66
64404;BME280;50726;54.912;-8.392;2022-11-15T05:01:11;98130.00;;;33.06;33.01
64404;BME280;50726;54.912;-8.392;2022-11-15T05:03:37;98115.59;;;33.86;29.88
64404;BME280;50726;54.912;-8.392;2022-11-15T05:06:22;98144.63;;;30.52;35.94
64404;BME280;50726;54.912;-8.392;2022-11-15T05:08:47;98125.06;;;31.18;35.62
64404;BME280;50726;54.912;-8.392;2022-11-15T05:11:13;98122.25;;;30.08;36.22
64404;BME280;50726;54.912;-8.392;2022-11-15T05:13:39;98143.47;;;32.89;33.64
64404;BME280;50726;54.912;-8.392;2022-11-15T05:16:05;98143.75;;;32.22;35.23
64404;BME280;50726;54.912;-8.392;2022-11-15T05:18:30;98142.81;;;30.65;36.13
64404;BME280;50726;54.912;-8.392;2022-11-15T05:21:03;98142.13;;;33.03;34.89
64404;BME280;50726;54.912;-8.392;2022-11-15T05:23:29;98144.97;;;31.91;34.34
64404;BME280;50726;54.912;-8.392;2022-11-15T05:25:59;98147.47;;;32.57;32.79
64404;BME280;50726;54.912;-8.392;2022-11-15T05:28:24;98136.03;;;32.02;34.23
64404;BME280;50726;54.912;-8.392;2022-11-15T05:30:50;98148.88;;;31.52;33.69
64404;BME280;50726;54.912;-8.392;2022-11-15T05:33:16;98138.44;;;32.51;34.04
64404;BME280;50726;54.912;-8.392;2022-11-15T05:35:46;98140.78;;;33.35;33.21
64404;BME280;50726;54.912;-8.392;2022-11-15T05:38:14;98144.69;;;31.80;33.43
64404;BME280;50726;54.912;-8.392;2022-11-15T05:40:40;98154.06;;;32.61;31.29
64404;BME280;50726;54.912;-8.392;2022-11-15T05:43:06;98164.63;;;31.13;34.24
64404;BME280;50726;54.912;-8.392;2022-11-15T05:45:33;98161.25;;;33.94;32.06
64404;BME280;50726;54.912;-8.392;2022-11-15T05:48:01;98164.78;;;30.06;33.73
64404;BME280;50726;54.912;-8.392;2022-11-15T05:50:29;98160.91;;;33.91;30.54
64404;BME280;50726;54.912;-8.392;2022-11-15T05:52:55;98164.38;;;31.45;32.70
64404;BME280;50726;54.912;-8.392;2022-11-15T05:55:21;98169.94;;;30.89;33.64
64404;BME280;50726;54.912;-8.392;2022-11-15T05:57:46;98178.53;;;31.28;33.98
64404;BME280;50726;54.912;-8.392;2022-11-15T06:00:13;98179.03;;;31.06;37.65
64404;BME280;50726;54.912;-8.392;2022-11-15T06:02:40;98176.94;;;28.40;38.74
64404;BME280;50726;54.912;-8.392;2022-11-15T06:05:06;98169.16;;;31.85;32.98
64404;BME280;50726;54.912;-8.392;2022-11-15T06:07:32;98193.59;;;30.12;36.64
64404;BME280;50726;54.912;-8.392;2022-11-15T06:09:59;98186.09;;;31.38;36.44
64404;BME280;50726;54.912;-8.392;2022-11-15T06:12:24;98185.34;;;34.08;34.77
64404;BME280;50726;54.912;-8.392;2022-11-15T06:14:50;98188.97;;;31.79;36.40
64404;BME280;50726;54.912;-8.392;2022-11-15T06:17:16;98188.13;;;33.61;34.30
64404;BME280;50726;54.912;-8.392;2022-11-15T06:19:41;98180.47;;;33.12;34.86
64404;BME280;50726;54.912;-8.392;2022-11-15T06:22:07;98185.28;;;32.81;34.27
64404;BME280;50726;54.912;-8.392;2022-11-15T06:24:34;98182.78;;;35.07;32.38
64404;BME280;50726;54.912;-8.392;2022-11-15T06:27:00;98186.28;;;32.51;34.04
64404;BME280;50726;54.912;-8.392;2022-11-15T06:29:26;98180.78;;;33.45;34.51
64404;BME280;50726;54.912;-8.392;2022-11-15T06:31:51;98197.53;;;34.27;32.62
64404;BME280;50726;54.912;-8.392;2022-11-15T06:34:18;98181.19;;;35.39;29.93
64404;BME280;50726;54.912;-8.392;2022-11-15T06:36:43;98194.03;;;34.10;30.10
64404;BME280;50726;54.912;-8.392;2022-11-15T06:39:09;98196.69;;;34.44;31.08
64404;BME280;50726;54.912;-8.392;2022-11-15T06:41:35;98202.41;;;35.70;29.93
64404;BME280;50726;54.912;-8.392;2022-11-15T06:44:02;98208.25;;;36.22;28.84
64404;BME280;50726;54.912;-8.392;2022-11-15T06:46:27;98205.69;;;34.50;29.11
64404;BME280;50726;54.912;-8.392;2022-11-15T06:48:54;98206.75;;;33.92;29.66
64404;BME280;50726;54.912;-8.392;2022-11-15T06:51:20;98216.19;;;32.97;30.78
64404;BME280;50726;54.912;-8.392;2022-11-15T06:53:46;98205.84;;;32.94;31.10
64404;BME280;50726;54.912;-8.392;2022-11-15T06:56:12;98211.28;;;34.83;30.60
64404;BME280;50726;54.912;-8.392;2022-11-15T06:58:38;98219.47;;;34.43;30.54
64404;BME280;50726;54.912;-8.392;2022-11-15T07:01:07;98208.84;;;34.81;31.04
64404;BME280;50726;54.912;-8.392;2022-11-15T07:03:37;98211.97;;;34.33;30.50
64404;BME280;50726;54.912;-8.392;2022-11-15T07:06:03;98212.25;;;33.63;32.06
64404;BME280;50726;54.912;-8.392;2022-11-15T07:08:30;98203.13;;;35.05;31.55
64404;BME280;50726;54.912;-8.392;2022-11-15T07:11:00;98212.75;;;35.68;32.69
64404;BME280;50726;54.912;-8.392;2022-11-15T07:13:28;98208.63;;;34.26;32.67
64404;BME280;50726;54.912;-8.392;2022-11-15T07:15:54;98210.13;;;32.78;31.80
64404;BME280;50726;54.912;-8.392;2022-11-15T07:18:20;98212.59;;;34.18;31.61
64404;BME280;50726;54.912;-8.392;2022-11-15T07:20:46;98212.97;;;34.44;34.04
64404;BME280;50726;54.912;-8.392;2022-11-15T07:23:12;98205.78;;;33.35;32.66
64404;BME280;50726;54.912;-8.392;2022-11-15T07:25:39;98205.50;;;33.48;34.15
64404;BME280;50726;54.912;-8.392;2022-11-15T07:28:04;98201.41;;;34.14;31.80
64404;BME280;50726;54.912;-8.392;2022-11-15T07:30:31;98200.25;;;33.59;32.67
64404;BME280;50726;54.912;-8.392;2022-11-15T07:32:58;98210.09;;;36.16;32.55
64404;BME280;50726;54.912;-8.392;2022-11-15T07:35:25;98208.28;;;35.06;31.26
64404;BME280;50726;54.912;-8.392;2022-11-15T07:37:59;98208.50;;;34.77;31.96
64404;BME280;50726;54.912;-8.392;2022-11-15T07:40:27;98212.81;;;34.34;31.86
64404;BME280;50726;54.912;-8.392;2022-11-15T07:43:02;98217.88;;;33.73;31.71
64404;BME280;50726;54.912;-8.392;2022-11-15T07:45:29;98219.81;;;33.78;32.14
64404;BME280;50726;54.912;-8.392;2022-11-15T07:47:55;98221.47;;;33.96;31.46
64404;BME280;50726;54.912;-8.392;2022-11-15T07:50:22;98221.47;;;34.13;33.42
64404;BME280;50726;54.912;-8.392;2022-11-15T07:52:53;98220.81;;;35.95;31.97
64404;BME280;50726;54.912;-8.392;2022-11-15T07:55:21;98220.53;;;35.92;30.58
64404;BME280;50726;54.912;-8.392;2022-11-15T07:57:47;98225.84;;;34.54;30.13
64404;BME280;50726;54.912;-8.392;2022-11-15T08:00:14;98230.78;;;37.29;28.90
64404;BME280;50726;54.912;-8.392;2022-11-15T08:02:39;98228.38;;;36.74;29.61
64404;BME280;50726;54.912;-8.392;2022-11-15T08:05:05;98221.25;;;38.05;28.98
64404;BME280;50726;54.912;-8.392;2022-11-15T08:07:31;98219.41;;;36.74;28.91
64404;BME280;50726;54.912;-8.392;2022-11-15T08:09:58;98220.22;;;35.05;29.59
64404;BME280;50726;54.912;-8.392;2022-11-15T08:12:24;98218.31;;;35.28;29.87
64404;BME280;50726;54.912;-8.392;2022-11-15T08:14:50;98217.94;;;34.70;30.13
64404;BME280;50726;54.912;-8.392;2022-11-15T08:17:15;98226.41;;;35.23;29.43
64404;BME280;50726;54.912;-8.392;2022-11-15T08:19:41;98220.81;;;34.23;31.03
64404;BME280;50726;54.912;-8.392;2022-11-15T08:22:07;98224.78;;;35.50;30.73
64404;BME280;50726;54.912;-8.392;2022-11-15T08:24:33;98228.81;;;35.47;30.68
64404;BME280;50726;54.912;-8.392;2022-11-15T08:26:59;98233.44;;;35.74;28.90
64404;BME280;50726;54.912;-8.392;2022-11-15T08:29:25;98235.56;;;36.42;28.92
64404;BME280;50726;54.912;-8.392;2022-11-15T08:31:54;98235.13;;;37.25;30.21
64404;BME280;50726;54.912;-8.392;2022-11-15T08:34:21;98237.91;;;36.72;28.47
64404;BME280;50726;54.912;-8.392;2022-11-15T08:36:47;98242.28;;;36.78;28.13
64404;BME280;50726;54.912;-8.392;2022-11-15T08:39:13;98242.09;;;34.71;30.27
64404;BME280;50726;54.912;-8.392;2022-11-15T08:41:39;98252.09;;;35.60;30.52
64404;BME280;50726;54.912;-8.392;2022-11-15T08:44:05;98248.34;;;36.04;28.99
64404;BME280;50726;54.912;-8.392;2022-11-15T08:46:30;98238.00;;;34.91;29.63
64404;BME280;50726;54.912;-8.392;2022-11-15T08:48:56;98239.34;;;35.66;28.69
64404;BME280;50726;54.912;-8.392;2022-11-15T08:51:22;98229.94;;;37.50;27.93
64404;BME280;50726;54.912;-8.392;2022-11-15T08:53:47;98234.56;;;37.23;27.83
64404;BME280;50726;54.912;-8.392;2022-11-15T08:56:14;98228.09;;;36.71;29.11
64404;BME280;50726;54.912;-8.392;2022-11-15T08:58:40;98231.63;;;37.97;27.79
64404;BME280;50726;54.912;-8.392;2022-11-15T09:01:17;98226.31;;;37.02;28.53
64404;BME280;50726;54.912;-8.392;2022-11-15T09:03:43;98231.75;;;33.60;30.25
64404;BME280;50726;54.912;-8.392;2022-11-15T09:06:08;98231.09;;;32.35;32.81
64404;BME280;50726;54.912;-8.392;2022-11-15T09:08:34;98229.56;;;32.03;32.65
64404;BME280;50726;54.912;-8.392;2022-11-15T09:11:04;98228.34;;;33.53;31.85
64404;BME280;50726;54.912;-8.392;2022-11-15T09:13:30;98222.16;;;33.86;30.41
64404;BME280;50726;54.912;-8.392;2022-11-15T09:16:00;98222.75;;;31.88;33.67
64404;BME280;50726;54.912;-8.392;2022-11-15T09:18:26;98223.16;;;32.81;32.50
64404;BME280;50726;54.912;-8.392;2022-11-15T09:20:57;98226.66;;;32.40;32.45
64404;BME280;50726;54.912;-8.392;2022-11-15T09:23:23;98227.94;;;31.59;33.93
64404;BME280;50726;54.912;-8.392;2022-11-15T09:25:49;98226.91;;;31.72;33.48
64404;BME280;50726;54.912;-8.392;2022-11-15T09:28:15;98228.63;;;32.57;33.04
64404;BME280;50726;54.912;-8.392;2022-11-15T09:30:41;98224.66;;;33.59;31.75
64404;BME280;50726;54.912;-8.392;2022-11-15T09:33:11;98229.53;;;34.87;30.44
64404;BME280;50726;54.912;-8.392;2022-11-15T09:35:37;98226.53;;;34.27;30.64
64404;BME280;50726;54.912;-8.392;2022-11-15T09:38:03;98226.84;;;35.65;30.09
64404;BME280;50726;54.912;-8.392;2022-11-15T09:40:32;98237.97;;;36.87;28.69
64404;BME280;50726;54.912;-8.392;2022-11-15T09:43:22;98230.94;;;36.05;29.37
64404;BME280;50726;54.912;-8.392;2022-11-15T09:48:43;98236.63;;;33.17;32.23
64404;BME280;50726;54.912;-8.392;2022-11-15T09:54:01;98225.72;;;33.00;31.66
64404;BME280;50726;54.912;-8.392;2022-11-15T09:56:34;98221.97;;;34.50;30.92
64404;BME280;50726;54.912;-8.392;2022-11-15T10:04:11;98206.41;;;33.08;31.71
64404;BME280;50726;54.912;-8.392;2022-11-15T10:06:42;98199.63;;;33.52;31.89
64404;BME280;50726;54.912;-8.392;2022-11-15T10:09:18;98206.91;;;32.93;31.67
64404;BME280;50726;54.912;-8.392;2022-11-15T10:11:45;98207.19;;;31.72;31.99
64404;BME280;50726;54.912;-8.392;2022-11-15T10:14:22;98200.69;;;33.21;30.97
64404;BME280;50726;54.912;-8.392;2022-11-15T10:17:09;98181.84;;;33.44;30.75
64404;BME280;50726;54.912;-8.392;2022-11-15T10:22:38;98191.97;;;32.90;31.08
64404;BME280;50726;54.912;-8.392;2022-11-15T10:25:19;98189.06;;;32.80;31.87
64404;BME280;50726;54.912;-8.392;2022-11-15T10:27:54;98194.84;;;32.72;32.29
64404;BME280;50726;54.912;-8.392;2022-11-15T10:30:21;98200.53;;;34.48;30.59
64404;BME280;50726;54.912;-8.392;2022-11-15T10:32:48;98191.78;;;33.09;31.26
64404;BME280;50726;54.912;-8.392;2022-11-15T10:35:29;98201.66;;;34.52;29.95
64404;BME280;50726;54.912;-8.392;2022-11-15T10:38:13;98201.81;;;35.07;29.81
64404;BME280;50726;54.912;-8.392;2022-11-15T10:40:40;98197.38;;;36.22;29.09
64404;BME280;50726;54.912;-8.392;2022-11-15T10:43:18;98193.25;;;35.81;28.50
64404;BME280;50726;54.912;-8.392;2022-11-15T10:45:45;98207.66;;;35.21;29.35
64404;BME280;50726;54.912;-8.392;2022-11-15T10:50:42;98187.25;;;32.98;30.97
64404;BME280;50726;54.912;-8.392;2022-11-15T10:53:26;98187.91;;;33.05;30.90
64404;BME280;50726;54.912;-8.392;2022-11-15T10:55:57;98191.66;;;33.62;31.14
64404;BME280;50726;54.912;-8.392;2022-11-15T10:58:41;98189.13;;;32.32;32.73
64404;BME280;50726;54.912;-8.392;2022-11-15T11:01:14;98178.44;;;32.78;31.63
64404;BME280;50726;54.912;-8.392;2022-11-15T11:03:41;98178.31;;;32.20;32.44
64404;BME280;50726;54.912;-8.392;2022-11-15T11:06:11;98168.41;;;32.91;34.26
64404;BME280;50726;54.912;-8.392;2022-11-15T11:08:39;98172.22;;;32.01;32.81
64404;BME280;50726;54.912;-8.392;2022-11-15T11:11:06;98167.53;;;33.14;32.12
64404;BME280;50726;54.912;-8.392;2022-11-15T11:13:39;98156.66;;;32.56;31.86
64404;BME280;50726;54.912;-8.392;2022-11-15T11:26:56;98147.50;;;33.15;32.04
64404;BME280;50726;54.912;-8.392;2022-11-15T11:32:22;98134.88;;;34.07;30.41
64404;BME280;50726;54.912;-8.392;2022-11-15T11:35:02;98130.50;;;34.23;29.85
64404;BME280;50726;54.912;-8.392;2022-11-15T11:37:59;98127.34;;;34.31;30.16
64404;BME280;50726;54.912;-8.392;2022-11-15T11:40:34;98130.88;;;33.58;30.54
64404;BME280;50726;54.912;-8.392;2022-11-15T11:43:13;98123.41;;;33.48;31.12
64404;BME280;50726;54.912;-8.392;2022-11-15T11:48:43;98114.06;;;33.56;31.82
64404;BME280;50726;54.912;-8.392;2022-11-15T11:51:32;98109.25;;;32.83;30.84
64404;BME280;50726;54.912;-8.392;2022-11-15T11:54:57;98112.50;;;35.44;28.86
64404;BME280;50726;54.912;-8.392;2022-11-15T11:57:05;98110.75;;;32.61;31.92
64404;BME280;50726;54.912;-8.392;2022-11-15T11:59:48;98112.56;;;33.65;31.57
64404;BME280;50726;54.912;-8.392;2022-11-15T12:02:21;98108.88;;;35.05;30.58
64404;BME280;50726;54.912;-8.392;2022-11-15T12:04:57;98114.34;;;34.55;30.45
64404;BME280;50726;54.912;-8.392;2022-11-15T12:07:32;98104.50;;;34.49;29.91
64404;BME280;50726;54.912;-8.392;2022-11-15T12:10:04;98106.66;;;36.64;28.09
64404;BME280;50726;54.912;-8.392;2022-11-15T12:12:44;98105.75;;;34.64;30.35
64404;BME280;50726;54.912;-8.392;2022-11-15T12:15:16;98107.81;;;34.12;30.70
64404;BME280;50726;54.912;-8.392;2022-11-15T12:17:45;98101.16;;;36.44;28.93
64404;BME280;50726;54.912;-8.392;2022-11-15T12:20:23;98106.69;;;36.75;28.34
64404;BME280;50726;54.912;-8.392;2022-11-15T12:25:31;98092.66;;;33.94;31.14
64404;BME280;50726;54.912;-8.392;2022-11-15T12:31:11;98093.47;;;31.61;33.31
64404;BME280;50726;54.912;-8.392;2022-11-15T12:33:43;98086.88;;;31.45;34.56
64404;BME280;50726;54.912;-8.392;2022-11-15T12:36:11;98085.59;;;31.48;34.55
64404;BME280;50726;54.912;-8.392;2022-11-15T12:38:58;98077.00;;;31.99;34.57
64404;BME280;50726;54.912;-8.392;2022-11-15T12:41:30;98081.34;;;30.86;34.99
64404;BME280;50726;54.912;-8.392;2022-11-15T12:43:57;98076.03;;;32.87;33.47
64404;BME280;50726;54.912;-8.392;2022-11-15T12:49:01;98072.91;;;31.37;35.10
64404;BME280;50726;54.912;-8.392;2022-11-15T13:02:40;98045.56;;;32.92;32.57
64404;BME280;50726;54.912;-8.392;2022-11-15T13:12:57;98033.34;;;32.31;33.81
64404;BME280;50726;54.912;-8.392;2022-11-15T13:15:34;98029.47;;;31.38;34.89
64404;BME280;50726;54.912;-8.392;2022-11-15T13:18:35;98024.53;;;32.82;33.51
64404;BME280;50726;54.912;-8.392;2022-11-15T13:21:04;98015.91;;;32.39;34.04
64404;BME280;50726;54.912;-8.392;2022-11-15T13:23:54;98028.13;;;32.71;33.90
64404;BME280;50726;54.912;-8.392;2022-11-15T13:26:21;98026.19;;;30.51;35.54
64404;BME280;50726;54.912;-8.392;2022-11-15T13:28:49;98030.59;;;31.18;34.05
64404;BME280;50726;54.912;-8.392;2022-11-15T13:31:24;98028.63;;;31.61;33.72
64404;BME280;50726;54.912;-8.392;2022-11-15T13:33:51;98023.69;;;31.34;34.83
64404;BME280;50726;54.912;-8.392;2022-11-15T13:36:24;98020.78;;;32.83;32.98
64404;BME280;50726;54.912;-8.392;2022-11-15T13:39:12;98021.13;;;31.40;33.84
64404;BME280;50726;54.912;-8.392;2022-11-15T13:41:50;98024.28;;;32.66;33.05
64404;BME280;50726;54.912;-8.392;2022-11-15T13:44:31;98013.34;;;31.79;34.29
64404;BME280;50726;54.912;-8.392;2022-11-15T13:47:13;98008.41;;;31.76;34.12
64404;BME280;50726;54.912;-8.392;2022-11-15T13:49:40;98013.84;;;31.28;34.85
64404;BME280;50726;54.912;-8.392;2022-11-15T13:52:09;98018.72;;;32.90;33.58
64404;BME280;50726;54.912;-8.392;2022-11-15T13:54:44;98018.09;;;29.83;35.99
64404;BME280;50726;54.912;-8.392;2022-11-15T14:00:01;98017.53;;;32.11;33.51
64404;BME280;50726;54.912;-8.392;2022-11-15T14:02:31;98010.56;;;30.41;36.14
64404;BME280;50726;54.912;-8.392;2022-11-15T14:05:19;98015.44;;;31.05;34.38
64404;BME280;50726;54.912;-8.392;2022-11-15T14:07:58;98003.75;;;31.36;34.33
64404;BME280;50726;54.912;-8.392;2022-11-15T14:10:34;98003.88;;;34.28;31.20
64404;BME280;50726;54.912;-8.392;2022-11-15T14:13:03;98011.34;;;31.15;34.17
64404;BME280;50726;54.912;-8.392;2022-11-15T14:15:37;98004.84;;;33.72;31.72
64404;BME280;50726;54.912;-8.392;2022-11-15T14:18:04;98000.03;;;34.74;31.66
64404;BME280;50726;54.912;-8.392;2022-11-15T14:20:34;97987.69;;;37.27;28.93
64404;BME280;50726;54.912;-8.392;2022-11-15T14:23:26;97981.22;;;39.19;28.00
64404;BME280;50726;54.912;-8.392;2022-11-15T14:25:56;97981.56;;;37.82;27.82
64404;BME280;50726;54.912;-8.392;2022-11-15T14:30:51;97968.47;;;37.79;27.67
64404;BME280;50726;54.912;-8.392;2022-11-15T14:33:37;97962.50;;;38.33;27.41